createdAt,value
2022-10-16T00:01:13.361Z,13.80
2022-10-16T00:03:42.440Z,13.90
2022-10-16T00:06:10.358Z,13.80
2022-10-16T00:08:39.243Z,13.90
2022-10-16T00:11:16.216Z,13.90
2022-10-16T00:13:44.890Z,13.90
2022-10-16T00:16:13.229Z,13.90
2022-10-16T00:18:40.599Z,13.90
2022-10-16T00:21:10.791Z,13.90
2022-10-16T00:23:38.101Z,13.90
2022-10-16T00:26:10.791Z,14.00
2022-10-16T00:28:38.159Z,14.00
2022-10-16T00:31:10.820Z,14.00
2022-10-16T00:33:39.868Z,14.10
2022-10-16T00:36:08.912Z,14.10
2022-10-16T00:38:35.952Z,14.10
2022-10-16T00:41:02.842Z,14.20
2022-10-16T00:43:44.117Z,14.20
2022-10-16T00:46:39.378Z,14.20
2022-10-16T00:49:16.082Z,14.20
2022-10-16T00:51:47.512Z,14.20
2022-10-16T00:54:34.914Z,14.20
2022-10-16T00:57:05.491Z,14.20
2022-10-16T00:59:42.087Z,14.20
2022-10-16T01:02:12.511Z,14.20
2022-10-16T01:04:54.618Z,14.20
2022-10-16T01:07:42.617Z,14.30
2022-10-16T01:10:18.414Z,14.30
2022-10-16T01:12:57.183Z,14.30
2022-10-16T01:15:30.883Z,14.30
2022-10-16T01:18:13.003Z,14.30
2022-10-16T01:20:44.435Z,14.30
2022-10-16T01:23:37.932Z,14.30
2022-10-16T01:26:25.164Z,14.30
2022-10-16T01:29:14.629Z,14.30
2022-10-16T01:31:45.774Z,14.30
2022-10-16T01:34:15.507Z,14.20
2022-10-16T01:37:00.319Z,14.20
2022-10-16T01:39:31.968Z,14.20
2022-10-16T01:42:22.075Z,14.20
2022-10-16T01:44:53.684Z,14.20
2022-10-16T01:47:25.866Z,14.20
2022-10-16T01:49:54.988Z,14.20
2022-10-16T01:52:26.509Z,14.20
2022-10-16T01:54:56.423Z,14.20
2022-10-16T01:57:26.053Z,14.20
2022-10-16T01:59:57.524Z,14.20
2022-10-16T02:02:29.735Z,14.10
2022-10-16T02:05:02.790Z,14.10
2022-10-16T02:07:29.732Z,14.10
2022-10-16T02:09:57.041Z,14.10
2022-10-16T02:12:28.708Z,14.10
2022-10-16T02:14:56.155Z,14.10
2022-10-16T02:17:23.927Z,14.10
2022-10-16T02:19:54.684Z,14.10
2022-10-16T02:22:35.375Z,14.00
2022-10-16T02:25:23.279Z,14.00
2022-10-16T02:27:56.408Z,14.00
2022-10-16T02:30:50.131Z,13.90
2022-10-16T02:33:19.173Z,13.80
2022-10-16T02:35:48.836Z,13.80
2022-10-16T02:38:17.237Z,13.80
2022-10-16T02:40:44.592Z,13.80
2022-10-16T02:43:12.871Z,13.70
2022-10-16T02:45:39.899Z,13.70
2022-10-16T02:48:07.318Z,13.70
2022-10-16T02:50:34.327Z,13.70
2022-10-16T02:53:01.459Z,13.70
2022-10-16T02:55:28.951Z,13.70
2022-10-16T02:57:56.875Z,13.70
2022-10-16T03:00:23.805Z,13.70
2022-10-16T03:02:51.060Z,13.70
2022-10-16T03:05:18.371Z,13.70
2022-10-16T03:07:45.279Z,13.70
2022-10-16T03:10:12.162Z,13.70
2022-10-16T03:12:39.108Z,13.70
2022-10-16T03:15:07.915Z,13.70
2022-10-16T03:17:34.864Z,13.70
2022-10-16T03:20:01.735Z,13.70
2022-10-16T03:22:28.828Z,13.70
2022-10-16T03:24:55.674Z,13.70
2022-10-16T03:27:22.848Z,13.70
2022-10-16T03:29:49.783Z,13.70
2022-10-16T03:32:16.707Z,13.60
2022-10-16T03:34:43.655Z,13.60
2022-10-16T03:37:10.969Z,13.60
2022-10-16T03:39:37.861Z,13.60
2022-10-16T03:42:04.751Z,13.60
2022-10-16T03:44:31.715Z,13.60
2022-10-16T03:46:58.584Z,13.60
2022-10-16T03:49:25.431Z,13.60
2022-10-16T03:51:52.324Z,13.60
2022-10-16T03:54:19.363Z,13.50
2022-10-16T03:56:46.213Z,13.50
2022-10-16T03:59:13.136Z,13.50
2022-10-16T04:01:40.089Z,13.50
2022-10-16T04:04:06.956Z,13.40
2022-10-16T04:06:33.951Z,13.40
2022-10-16T04:09:00.821Z,13.40
2022-10-16T04:11:27.740Z,13.40
2022-10-16T04:13:54.612Z,13.40
2022-10-16T04:16:21.529Z,13.40
2022-10-16T04:18:48.560Z,13.40
2022-10-16T04:21:16.464Z,13.40
2022-10-16T04:23:43.692Z,13.40
2022-10-16T04:26:11.540Z,13.50
2022-10-16T04:28:38.643Z,13.50
2022-10-16T04:31:06.605Z,13.50
2022-10-16T04:33:33.855Z,13.50
2022-10-16T04:36:02.729Z,13.50
2022-10-16T04:38:30.193Z,13.50
2022-10-16T04:40:57.131Z,13.50
2022-10-16T04:43:25.129Z,13.60
2022-10-16T04:45:52.112Z,13.50
2022-10-16T04:48:19.809Z,13.60
2022-10-16T04:50:50.503Z,13.60
2022-10-16T04:53:21.185Z,13.60
2022-10-16T04:55:48.094Z,13.70
2022-10-16T04:58:14.966Z,13.70
2022-10-16T05:00:41.837Z,13.70
2022-10-16T05:03:10.048Z,13.70
2022-10-16T05:05:37.509Z,13.70
2022-10-16T05:08:05.087Z,13.80
2022-10-16T05:10:32.077Z,13.80
2022-10-16T05:12:59.125Z,13.80
2022-10-16T05:15:27.162Z,13.80
2022-10-16T05:17:55.242Z,13.80
2022-10-16T05:20:22.814Z,13.80
2022-10-16T05:22:49.744Z,13.80
2022-10-16T05:25:17.030Z,13.80
2022-10-16T05:27:43.980Z,13.70
2022-10-16T05:30:12.483Z,13.70
2022-10-16T05:32:39.749Z,13.70
2022-10-16T05:35:10.091Z,13.70
2022-10-16T05:37:39.551Z,13.70
2022-10-16T05:40:07.022Z,13.70
2022-10-16T05:42:33.926Z,13.70
2022-10-16T05:45:01.029Z,13.60
2022-10-16T05:47:28.738Z,13.60
2022-10-16T05:49:56.931Z,13.50
2022-10-16T05:52:23.813Z,13.50
2022-10-16T05:54:50.832Z,13.50
2022-10-16T05:57:17.679Z,13.40
2022-10-16T05:59:44.534Z,13.40
2022-10-16T06:02:15.102Z,13.40
2022-10-16T06:04:42.113Z,13.40
2022-10-16T06:07:09.237Z,13.40
2022-10-16T06:09:36.191Z,13.40
2022-10-16T06:12:03.122Z,13.30
2022-10-16T06:14:30.048Z,13.30
2022-10-16T06:16:56.991Z,13.30
2022-10-16T06:19:24.237Z,13.30
2022-10-16T06:21:51.108Z,13.30
2022-10-16T06:24:18.080Z,13.30
2022-10-16T06:26:44.953Z,13.30
2022-10-16T06:29:11.827Z,13.30
2022-10-16T06:31:38.752Z,13.30
2022-10-16T06:34:10.197Z,13.30
2022-10-16T06:36:37.499Z,13.40
2022-10-16T06:39:05.851Z,13.50
2022-10-16T06:41:32.851Z,13.80
2022-10-16T06:43:59.741Z,14.20
2022-10-16T06:46:27.708Z,14.80
2022-10-16T06:48:55.196Z,15.20
2022-10-16T06:51:24.428Z,15.70
2022-10-16T06:54:03.441Z,16.00
2022-10-16T06:56:32.933Z,16.30
2022-10-16T06:59:00.594Z,16.70
2022-10-16T07:01:28.024Z,16.60
2022-10-16T07:03:55.020Z,16.20
2022-10-16T07:06:24.435Z,15.90
2022-10-16T07:08:51.598Z,16.10
2022-10-16T07:11:21.086Z,16.80
2022-10-16T07:13:52.708Z,17.60
2022-10-16T07:16:25.519Z,18.40
2022-10-16T07:18:55.404Z,19.30
2022-10-16T07:21:23.848Z,20.00
2022-10-16T07:23:59.911Z,20.70
2022-10-16T07:26:28.306Z,21.30
2022-10-16T07:28:55.408Z,21.90
2022-10-16T07:31:22.875Z,22.30
2022-10-16T07:33:50.420Z,22.70
2022-10-16T07:36:19.036Z,23.10
2022-10-16T07:38:47.268Z,23.80
2022-10-16T07:41:17.193Z,24.20
2022-10-16T07:43:48.939Z,24.40
2022-10-16T07:46:16.164Z,25.00
2022-10-16T07:48:46.631Z,25.40
2022-10-16T07:51:15.121Z,25.70
2022-10-16T07:53:42.190Z,26.00
2022-10-16T07:56:09.421Z,26.10
2022-10-16T07:58:39.482Z,26.80
2022-10-16T08:01:09.035Z,27.20
2022-10-16T08:03:36.200Z,27.70
2022-10-16T08:06:04.540Z,28.30
2022-10-16T08:08:31.755Z,28.50
2022-10-16T08:10:58.672Z,28.80
2022-10-16T08:13:25.664Z,28.80
2022-10-16T08:15:52.545Z,28.70
2022-10-16T08:18:19.405Z,28.90
2022-10-16T08:20:46.259Z,28.90
2022-10-16T08:23:14.357Z,28.40
2022-10-16T08:25:42.200Z,28.30
2022-10-16T08:28:10.990Z,28.50
2022-10-16T08:30:38.349Z,29.00
2022-10-16T08:33:05.775Z,29.50
2022-10-16T08:35:32.675Z,29.20
2022-10-16T08:37:59.531Z,28.70
2022-10-16T08:40:33.564Z,28.10
2022-10-16T08:43:38.863Z,27.90
2022-10-16T08:46:08.850Z,28.00
2022-10-16T08:48:47.183Z,28.30
2022-10-16T08:51:43.461Z,28.90
2022-10-16T08:54:24.529Z,29.80
2022-10-16T08:56:51.539Z,30.10
2022-10-16T08:59:19.587Z,30.00
2022-10-16T09:01:51.782Z,30.30
2022-10-16T09:04:21.439Z,30.90
2022-10-16T09:06:58.131Z,31.20
2022-10-16T09:10:03.788Z,31.10
2022-10-16T09:13:00.816Z,31.20
2022-10-16T09:15:37.829Z,31.60
2022-10-16T09:18:22.439Z,31.50
2022-10-16T09:20:52.460Z,31.60
2022-10-16T09:23:38.044Z,31.70
2022-10-16T09:26:06.917Z,32.10
2022-10-16T09:28:33.838Z,32.10
2022-10-16T09:31:00.733Z,32.40
2022-10-16T09:33:38.944Z,32.20
2022-10-16T09:36:07.805Z,32.10
2022-10-16T09:38:39.811Z,30.90
2022-10-16T09:41:20.910Z,30.10
2022-10-16T09:43:50.833Z,29.80
2022-10-16T09:46:44.692Z,30.30
2022-10-16T09:49:23.033Z,30.80
2022-10-16T09:51:50.411Z,31.30
2022-10-16T09:54:20.190Z,31.50
2022-10-16T09:57:07.819Z,31.50
2022-10-16T09:59:34.916Z,31.50
2022-10-16T10:02:11.821Z,31.40
2022-10-16T10:04:45.960Z,31.30
2022-10-16T10:07:27.779Z,31.40
2022-10-16T10:09:57.722Z,31.40
2022-10-16T10:12:30.576Z,31.50
2022-10-16T10:15:08.708Z,31.90
2022-10-16T10:17:45.946Z,32.20
2022-10-16T10:20:31.819Z,32.10
2022-10-16T10:22:58.977Z,31.80
2022-10-16T10:25:46.312Z,31.30
2022-10-16T10:28:41.160Z,30.50
2022-10-16T10:31:42.195Z,29.80
2022-10-16T10:34:42.010Z,28.80
2022-10-16T10:37:38.386Z,28.10
2022-10-16T10:40:28.803Z,27.30
2022-10-16T10:43:15.732Z,27.20
2022-10-16T10:45:53.580Z,27.20
2022-10-16T10:48:40.074Z,27.00
2022-10-16T10:51:38.012Z,26.90
2022-10-16T10:54:39.124Z,26.80
2022-10-16T10:57:34.854Z,27.00
2022-10-16T11:00:28.197Z,27.10
2022-10-16T11:03:13.886Z,27.30
2022-10-16T11:05:46.861Z,27.30
2022-10-16T11:08:19.549Z,27.30
2022-10-16T11:11:08.673Z,27.20
2022-10-16T11:13:44.959Z,26.60
2022-10-16T11:16:37.711Z,26.00
2022-10-16T11:19:04.563Z,25.70
2022-10-16T11:21:39.216Z,25.60
2022-10-16T11:24:23.532Z,25.10
2022-10-16T11:26:52.310Z,24.50
2022-10-16T11:29:26.468Z,24.10
2022-10-16T11:32:07.327Z,23.90
2022-10-16T11:34:45.621Z,23.70
2022-10-16T11:37:21.598Z,23.40
2022-10-16T11:39:49.499Z,23.30
2022-10-16T11:42:40.971Z,23.30
2022-10-16T11:45:08.033Z,23.30
2022-10-16T11:47:58.033Z,23.30
2022-10-16T11:50:55.349Z,23.20
2022-10-16T11:53:46.323Z,23.10
2022-10-16T11:56:18.454Z,23.20
2022-10-16T11:59:00.343Z,23.40
2022-10-16T12:01:45.100Z,23.40
2022-10-16T12:04:18.065Z,23.30
2022-10-16T12:06:52.263Z,23.00
2022-10-16T12:09:33.274Z,22.90
2022-10-16T12:12:00.915Z,22.90
2022-10-16T12:14:37.195Z,23.00
2022-10-16T12:17:27.499Z,23.10
2022-10-16T12:20:13.111Z,23.10
2022-10-16T12:22:50.531Z,23.10
2022-10-16T12:25:38.697Z,23.10
2022-10-16T12:28:21.442Z,22.80
2022-10-16T12:30:57.526Z,22.40
2022-10-16T12:33:30.986Z,22.10
2022-10-16T12:36:00.528Z,22.00
2022-10-16T12:38:27.620Z,21.80
2022-10-16T12:41:02.150Z,21.70
2022-10-16T12:43:45.266Z,21.80
2022-10-16T12:46:14.900Z,21.80
2022-10-16T12:49:02.244Z,21.80
2022-10-16T12:51:32.487Z,21.70
2022-10-16T12:54:05.555Z,21.40
2022-10-16T12:56:55.716Z,21.30
2022-10-16T12:59:29.987Z,21.30
2022-10-16T13:01:59.705Z,21.10
2022-10-16T13:05:13.060Z,21.10
2022-10-16T13:07:42.807Z,21.10
2022-10-16T13:10:36.025Z,21.10
2022-10-16T13:13:32.840Z,21.30
2022-10-16T13:16:10.104Z,21.40
2022-10-16T13:18:39.908Z,21.40
2022-10-16T13:21:25.991Z,21.30
2022-10-16T13:24:04.815Z,21.20
2022-10-16T13:27:15.331Z,21.10
2022-10-16T13:29:43.032Z,21.20
2022-10-16T13:32:15.467Z,21.20
2022-10-16T13:34:50.501Z,21.10
2022-10-16T13:37:23.271Z,21.00
2022-10-16T13:39:51.801Z,20.90
2022-10-16T13:42:27.065Z,20.70
2022-10-16T13:44:56.918Z,20.50
2022-10-16T13:47:30.132Z,20.50
2022-10-16T13:50:16.199Z,20.40
2022-10-16T13:52:43.071Z,20.40
2022-10-16T13:55:19.192Z,20.30
2022-10-16T13:57:46.384Z,20.30
2022-10-16T14:00:26.136Z,20.30
2022-10-16T14:02:59.625Z,20.10
2022-10-16T14:05:26.748Z,20.00
2022-10-16T14:07:55.396Z,20.00
2022-10-16T14:10:33.770Z,19.90
2022-10-16T14:13:07.080Z,19.90
2022-10-16T14:15:36.262Z,20.00
2022-10-16T14:18:04.544Z,20.00
2022-10-16T14:20:34.156Z,20.00
2022-10-16T14:23:20.686Z,20.00
2022-10-16T14:25:48.104Z,20.00
2022-10-16T14:28:19.708Z,20.00
2022-10-16T14:30:56.072Z,19.90
2022-10-16T14:33:32.070Z,19.80
2022-10-16T14:36:10.879Z,19.70
2022-10-16T14:38:43.488Z,19.60
2022-10-16T14:41:11.045Z,19.60
2022-10-16T14:43:41.057Z,19.50
2022-10-16T14:46:14.976Z,19.40
2022-10-16T14:48:44.711Z,19.40
2022-10-16T14:51:21.356Z,19.30
2022-10-16T14:53:48.304Z,19.20
2022-10-16T14:56:24.324Z,19.10
2022-10-16T14:58:52.630Z,19.00
2022-10-16T15:01:19.646Z,19.00
2022-10-16T15:03:46.810Z,18.90
2022-10-16T15:06:16.599Z,18.90
2022-10-16T15:08:43.843Z,18.80
2022-10-16T15:11:20.662Z,18.70
2022-10-16T15:13:48.027Z,18.60
2022-10-16T15:16:18.216Z,18.50
2022-10-16T15:18:45.171Z,18.50
2022-10-16T15:21:29.964Z,18.40
2022-10-16T15:23:57.731Z,18.40
2022-10-16T15:26:29.745Z,18.30
2022-10-16T15:28:57.413Z,18.30
2022-10-16T15:31:24.706Z,18.30
2022-10-16T15:33:55.241Z,18.30
2022-10-16T15:36:37.926Z,18.30
2022-10-16T15:39:06.541Z,18.20
2022-10-16T15:41:33.406Z,18.20
2022-10-16T15:44:00.394Z,18.20
2022-10-16T15:46:27.474Z,18.20
2022-10-16T15:48:59.156Z,18.10
2022-10-16T15:51:28.681Z,18.00
2022-10-16T15:53:57.532Z,17.90
2022-10-16T15:56:26.413Z,17.90
2022-10-16T15:58:54.907Z,17.80
2022-10-16T16:01:23.014Z,17.80
2022-10-16T16:03:54.852Z,17.80
2022-10-16T16:06:22.327Z,17.70
2022-10-16T16:08:49.229Z,17.70
2022-10-16T16:11:17.832Z,17.70
2022-10-16T16:13:44.888Z,17.60
2022-10-16T16:16:15.310Z,17.60
2022-10-16T16:18:43.166Z,17.60
2022-10-16T16:21:12.780Z,17.50
2022-10-16T16:23:39.768Z,17.60
2022-10-16T16:26:13.072Z,17.50
2022-10-16T16:28:41.922Z,17.50
2022-10-16T16:31:09.596Z,17.50
2022-10-16T16:33:36.765Z,17.40
2022-10-16T16:36:11.519Z,17.40
2022-10-16T16:38:40.231Z,17.40
2022-10-16T16:41:17.055Z,17.40
2022-10-16T16:43:44.747Z,17.30
2022-10-16T16:46:12.333Z,17.30
2022-10-16T16:48:39.344Z,17.30
2022-10-16T16:51:18.678Z,17.20
2022-10-16T16:53:47.079Z,17.20
2022-10-16T16:56:14.822Z,17.10
2022-10-16T16:58:42.093Z,17.10
2022-10-16T17:01:26.248Z,17.10
2022-10-16T17:03:55.356Z,17.00
2022-10-16T17:06:32.184Z,17.00
2022-10-16T17:09:02.089Z,17.00
2022-10-16T17:11:29.120Z,16.90
2022-10-16T17:13:57.508Z,16.90
2022-10-16T17:16:33.798Z,16.90
2022-10-16T17:19:07.313Z,16.90
2022-10-16T17:21:35.641Z,16.80
2022-10-16T17:24:03.375Z,16.80
2022-10-16T17:26:30.963Z,16.80
2022-10-16T17:29:00.488Z,16.70
2022-10-16T17:31:30.232Z,16.70
2022-10-16T17:33:59.227Z,16.60
2022-10-16T17:36:27.275Z,16.60
2022-10-16T17:38:54.176Z,16.50
2022-10-16T17:41:24.404Z,16.50
2022-10-16T17:43:52.235Z,16.50
2022-10-16T17:46:21.768Z,16.40
2022-10-16T17:48:52.315Z,16.40
2022-10-16T17:51:21.792Z,16.40
2022-10-16T17:53:50.359Z,16.30
2022-10-16T17:56:17.855Z,16.30
2022-10-16T17:58:47.702Z,16.30
2022-10-16T18:01:23.368Z,16.30
2022-10-16T18:03:56.971Z,16.20
2022-10-16T18:06:25.031Z,16.20
2022-10-16T18:08:53.266Z,16.10
2022-10-16T18:11:21.014Z,16.10
2022-10-16T18:13:48.355Z,16.10
2022-10-16T18:16:16.060Z,16.00
2022-10-16T18:18:47.993Z,16.00
2022-10-16T18:21:17.436Z,15.90
2022-10-16T18:23:50.896Z,15.90
2022-10-16T18:26:20.482Z,15.90
2022-10-16T18:28:47.860Z,15.80
2022-10-16T18:31:17.187Z,15.80
2022-10-16T18:33:48.689Z,15.80
2022-10-16T18:36:18.060Z,15.70
2022-10-16T18:38:45.112Z,15.70
2022-10-16T18:41:12.086Z,15.70
2022-10-16T18:43:40.398Z,15.70
2022-10-16T18:46:10.926Z,15.60
2022-10-16T18:48:38.099Z,15.60
2022-10-16T18:51:19.694Z,15.60
2022-10-16T18:53:49.519Z,15.60
2022-10-16T18:56:18.192Z,15.60
2022-10-16T18:58:48.379Z,15.60
2022-10-16T19:01:17.694Z,15.60
2022-10-16T19:03:44.905Z,15.60
2022-10-16T19:06:13.888Z,15.60
2022-10-16T19:08:41.411Z,15.60
2022-10-16T19:11:08.251Z,15.60
2022-10-16T19:13:35.764Z,15.60
2022-10-16T19:16:19.417Z,15.60
2022-10-16T19:18:47.872Z,15.60
2022-10-16T19:21:15.751Z,15.60
2022-10-16T19:23:42.643Z,15.60
2022-10-16T19:26:12.353Z,15.60
2022-10-16T19:28:40.037Z,15.60
2022-10-16T19:31:12.306Z,15.60
2022-10-16T19:33:40.847Z,15.60
2022-10-16T19:36:20.075Z,15.60
2022-10-16T19:38:47.429Z,15.60
2022-10-16T19:41:17.285Z,15.50
2022-10-16T19:43:45.045Z,15.60
2022-10-16T19:46:17.753Z,15.60
2022-10-16T19:48:45.700Z,15.60
2022-10-16T19:51:18.682Z,15.60
2022-10-16T19:53:48.328Z,15.60
2022-10-16T19:56:21.904Z,15.60
2022-10-16T19:58:49.108Z,15.60
2022-10-16T20:01:16.880Z,15.60
2022-10-16T20:03:45.161Z,15.70
2022-10-16T20:06:12.720Z,15.70
2022-10-16T20:08:41.764Z,15.70
2022-10-16T20:11:23.489Z,15.70
2022-10-16T20:13:50.922Z,15.70
2022-10-16T20:16:20.011Z,15.70
2022-10-16T20:18:48.565Z,15.60
2022-10-16T20:21:18.264Z,15.70
2022-10-16T20:23:47.647Z,15.70
2022-10-16T20:26:15.338Z,15.70
2022-10-16T20:28:42.932Z,15.70
2022-10-16T20:31:24.713Z,15.70
2022-10-16T20:33:53.821Z,15.70
2022-10-16T20:36:22.454Z,15.70
2022-10-16T20:38:50.221Z,15.70
2022-10-16T20:41:18.326Z,15.70
2022-10-16T20:43:49.232Z,15.70
2022-10-16T20:46:22.086Z,15.80
2022-10-16T20:48:49.739Z,15.80
2022-10-16T20:51:28.981Z,15.80
2022-10-16T20:54:01.549Z,15.70
2022-10-16T20:56:30.457Z,15.70
2022-10-16T20:58:57.905Z,15.80
2022-10-16T21:01:26.845Z,15.70
2022-10-16T21:03:56.904Z,15.70
2022-10-16T21:06:24.218Z,15.80
2022-10-16T21:08:51.539Z,15.80
2022-10-16T21:11:20.099Z,15.70
2022-10-16T21:13:47.105Z,15.80
2022-10-16T21:16:15.249Z,15.80
2022-10-16T21:18:44.817Z,15.80
2022-10-16T21:21:30.458Z,15.80
2022-10-16T21:23:58.772Z,15.80
2022-10-16T21:26:26.861Z,15.80
2022-10-16T21:29:01.398Z,15.80
2022-10-16T21:31:30.972Z,15.80
2022-10-16T21:33:58.363Z,15.90
2022-10-16T21:36:28.613Z,15.90
2022-10-16T21:38:56.485Z,15.80
2022-10-16T21:41:25.772Z,15.80
2022-10-16T21:43:53.480Z,15.80
2022-10-16T21:46:22.294Z,15.80
2022-10-16T21:48:52.277Z,15.80
2022-10-16T21:51:20.219Z,15.90
2022-10-16T21:53:47.069Z,15.80
2022-10-16T21:56:16.327Z,15.80
2022-10-16T21:58:43.990Z,15.80
2022-10-16T22:01:16.684Z,15.70
2022-10-16T22:03:45.565Z,15.70
2022-10-16T22:06:13.879Z,15.70
2022-10-16T22:08:41.119Z,15.70
2022-10-16T22:11:11.456Z,15.70
2022-10-16T22:13:38.653Z,15.60
2022-10-16T22:16:06.328Z,15.60
2022-10-16T22:18:35.182Z,15.60
2022-10-16T22:21:02.873Z,15.50
2022-10-16T22:23:29.827Z,15.50
2022-10-16T22:26:01.631Z,15.50
2022-10-16T22:28:29.061Z,15.50
2022-10-16T22:30:56.174Z,15.50
2022-10-16T22:33:23.225Z,15.40
2022-10-16T22:35:50.363Z,15.40
2022-10-16T22:38:17.211Z,15.40
2022-10-16T22:40:44.105Z,15.40
2022-10-16T22:43:11.062Z,15.40
2022-10-16T22:45:38.004Z,15.40
2022-10-16T22:48:05.444Z,15.40
2022-10-16T22:50:32.888Z,15.40
2022-10-16T22:52:59.836Z,15.30
2022-10-16T22:55:26.999Z,15.40
2022-10-16T22:57:56.709Z,15.30
2022-10-16T23:00:23.687Z,15.30
2022-10-16T23:02:50.783Z,15.30
2022-10-16T23:05:17.712Z,15.30
2022-10-16T23:07:46.496Z,15.30
2022-10-16T23:10:13.479Z,15.30
2022-10-16T23:12:40.335Z,15.20
2022-10-16T23:15:07.611Z,15.30
2022-10-16T23:17:34.517Z,15.30
2022-10-16T23:20:01.358Z,15.30
2022-10-16T23:22:29.563Z,15.30
2022-10-16T23:24:56.643Z,15.20
2022-10-16T23:27:23.674Z,15.20
2022-10-16T23:29:50.529Z,15.20
2022-10-16T23:32:17.413Z,15.20
2022-10-16T23:34:44.248Z,15.20
2022-10-16T23:37:11.109Z,15.20
2022-10-16T23:39:38.039Z,15.20
2022-10-16T23:42:04.924Z,15.20
2022-10-16T23:44:31.846Z,15.20
2022-10-16T23:46:58.738Z,15.20
2022-10-16T23:49:25.635Z,15.10
2022-10-16T23:51:52.553Z,15.20
2022-10-16T23:54:19.436Z,15.20
2022-10-16T23:56:46.315Z,15.20
2022-10-16T23:59:13.178Z,15.20
